createdAt,value
2023-04-22T00:00:18.187Z,7.13
2023-04-22T00:02:45.914Z,7.43
2023-04-22T00:05:15.940Z,7.90
2023-04-22T00:07:44.297Z,11.18
2023-04-22T00:10:11.839Z,8.38
2023-04-22T00:12:39.071Z,7.07
2023-04-22T00:15:06.928Z,8.40
2023-04-22T00:17:34.008Z,8.15
2023-04-22T00:20:01.793Z,6.47
2023-04-22T00:22:28.870Z,6.60
2023-04-22T00:24:56.045Z,9.05
2023-04-22T00:27:23.150Z,7.65
2023-04-22T00:29:50.231Z,9.38
2023-04-22T00:32:17.353Z,7.88
2023-04-22T00:34:44.408Z,13.95
2023-04-22T00:37:11.547Z,9.23
2023-04-22T00:39:40.065Z,9.00
2023-04-22T00:42:10.655Z,10.23
2023-04-22T00:44:37.856Z,7.65
2023-04-22T00:47:05.063Z,7.53
2023-04-22T00:49:32.734Z,6.90
2023-04-22T00:51:59.795Z,6.20
2023-04-22T00:54:27.311Z,10.20
2023-04-22T00:56:54.881Z,9.07
2023-04-22T00:59:24.108Z,7.07
2023-04-22T01:01:52.298Z,8.27
2023-04-22T01:04:21.467Z,7.05
2023-04-22T01:06:49.537Z,7.68
2023-04-22T01:09:16.673Z,8.35
2023-04-22T01:11:43.755Z,8.57
2023-04-22T01:14:10.851Z,10.73
2023-04-22T01:16:40.018Z,7.65
2023-04-22T01:19:08.452Z,8.07
2023-04-22T01:21:35.867Z,7.40
2023-04-22T01:24:03.313Z,9.65
2023-04-22T01:26:30.507Z,9.25
2023-04-22T01:28:57.946Z,7.75
2023-04-22T01:31:25.204Z,8.10
2023-04-22T01:33:52.701Z,6.15
2023-04-22T01:36:19.820Z,8.45
2023-04-22T01:38:47.904Z,9.25
2023-04-22T01:41:15.320Z,8.32
2023-04-22T01:43:44.308Z,6.35
2023-04-22T01:46:11.718Z,8.43
2023-04-22T01:48:39.131Z,7.72
2023-04-22T01:51:06.259Z,9.07
2023-04-22T01:53:33.260Z,7.47
2023-04-22T01:56:00.435Z,7.55
2023-04-22T01:58:30.022Z,8.38
2023-04-22T02:00:57.864Z,10.05
2023-04-22T02:03:25.049Z,8.90
2023-04-22T02:05:53.908Z,9.07
2023-04-22T02:08:20.941Z,6.65
2023-04-22T02:10:48.012Z,9.32
2023-04-22T02:13:15.084Z,8.35
2023-04-22T02:15:42.186Z,8.02
2023-04-22T02:18:10.394Z,8.20
2023-04-22T02:20:37.706Z,5.88
2023-04-22T02:23:06.764Z,12.00
2023-04-22T02:25:33.858Z,8.02
2023-04-22T02:28:01.040Z,7.15
2023-04-22T02:30:28.218Z,7.90
2023-04-22T02:32:56.283Z,6.85
2023-04-22T02:35:23.458Z,9.75
2023-04-22T02:37:51.431Z,8.25
2023-04-22T02:40:18.915Z,6.82
2023-04-22T02:42:45.972Z,6.97
2023-04-22T02:45:13.066Z,8.13
2023-04-22T02:47:40.483Z,7.75
2023-04-22T02:50:08.106Z,8.82
2023-04-22T02:52:35.157Z,8.55
2023-04-22T02:55:02.287Z,9.13
2023-04-22T02:57:29.494Z,8.80
2023-04-22T02:59:57.280Z,8.00
2023-04-22T03:02:24.863Z,8.43
2023-04-22T03:05:05.690Z,8.98
2023-04-22T03:07:32.782Z,8.85
2023-04-22T03:10:00.234Z,9.73
2023-04-22T03:12:27.370Z,6.00
2023-04-22T03:14:54.351Z,10.43
2023-04-22T03:17:23.374Z,8.57
2023-04-22T03:19:50.431Z,10.05
2023-04-22T03:22:17.528Z,7.78
2023-04-22T03:24:44.822Z,9.52
2023-04-22T03:27:11.951Z,5.75
2023-04-22T03:29:40.186Z,8.25
2023-04-22T03:32:08.020Z,9.05
2023-04-22T03:34:37.428Z,8.25
2023-04-22T03:37:07.205Z,9.93
2023-04-22T03:39:34.294Z,9.77
2023-04-22T03:42:01.840Z,8.40
2023-04-22T03:44:29.511Z,6.97
2023-04-22T03:46:56.616Z,9.90
2023-04-22T03:49:28.190Z,9.70
2023-04-22T03:51:56.517Z,8.15
2023-04-22T03:54:25.748Z,8.18
2023-04-22T03:56:53.207Z,9.05
2023-04-22T03:59:22.547Z,9.93
2023-04-22T04:01:51.963Z,9.90
2023-04-22T04:04:23.696Z,6.88
2023-04-22T04:06:57.287Z,10.57
2023-04-22T04:09:24.969Z,8.55
2023-04-22T04:11:52.472Z,9.02
2023-04-22T04:14:20.488Z,8.60
2023-04-22T04:16:49.010Z,11.63
2023-04-22T04:19:24.730Z,11.52
2023-04-22T04:21:52.138Z,13.52
2023-04-22T04:24:20.570Z,15.07
2023-04-22T04:26:50.246Z,13.98
2023-04-22T04:29:27.176Z,17.38
2023-04-22T04:32:10.124Z,15.55
2023-04-22T04:34:39.999Z,14.73
2023-04-22T04:37:09.311Z,14.90
2023-04-22T04:39:50.738Z,13.57
2023-04-22T04:42:21.356Z,15.65
2023-04-22T04:44:53.893Z,15.23
2023-04-22T04:47:22.792Z,14.25
2023-04-22T04:49:54.586Z,11.00
2023-04-22T04:52:22.210Z,13.23
2023-04-22T04:54:49.287Z,11.60
2023-04-22T04:57:16.466Z,12.32
2023-04-22T04:59:43.533Z,10.80
2023-04-22T05:02:11.241Z,11.65
2023-04-22T05:04:38.695Z,14.85
2023-04-22T05:07:05.969Z,17.48
2023-04-22T05:09:37.650Z,28.75
2023-04-22T05:12:05.501Z,54.10
2023-04-22T05:14:32.594Z,59.03
2023-04-22T05:16:59.846Z,33.75
2023-04-22T05:19:28.672Z,37.63
2023-04-22T05:21:56.924Z,30.02
2023-04-22T05:24:24.372Z,20.60
2023-04-22T05:26:51.947Z,16.08
2023-04-22T05:29:19.944Z,13.00
2023-04-22T05:31:47.080Z,14.15
2023-04-22T05:34:14.398Z,12.23
2023-04-22T05:36:42.146Z,14.75
2023-04-22T05:39:09.255Z,17.25
2023-04-22T05:41:36.387Z,49.35
2023-04-22T05:44:07.981Z,51.45
2023-04-22T05:46:35.221Z,38.60
2023-04-22T05:49:02.531Z,42.42
2023-04-22T05:51:58.598Z,22.00
2023-04-22T05:54:32.300Z,17.58
2023-04-22T05:56:59.637Z,12.48
2023-04-22T05:59:26.874Z,10.35
2023-04-22T06:01:54.271Z,9.68
2023-04-22T06:04:21.643Z,8.60
2023-04-22T06:06:53.796Z,13.35
2023-04-22T06:09:21.766Z,11.40
2023-04-22T06:11:48.907Z,12.07
2023-04-22T06:14:16.051Z,14.93
2023-04-22T06:16:44.777Z,22.63
2023-04-22T06:19:11.876Z,13.20
2023-04-22T06:21:40.696Z,18.58
2023-04-22T06:24:09.187Z,17.73
2023-04-22T06:26:37.672Z,15.05
2023-04-22T06:29:05.645Z,12.90
2023-04-22T06:31:33.892Z,13.18
2023-04-22T06:34:01.012Z,9.75
2023-04-22T06:36:30.433Z,10.52
2023-04-22T06:39:01.365Z,16.63
2023-04-22T06:41:50.387Z,11.73
2023-04-22T06:44:40.775Z,10.75
2023-04-22T06:47:46.604Z,12.02
2023-04-22T06:50:16.590Z,8.38
2023-04-22T06:52:51.244Z,9.68
2023-04-22T06:55:18.558Z,13.13
2023-04-22T06:57:45.836Z,9.05
2023-04-22T07:00:13.362Z,8.48
2023-04-22T07:02:42.044Z,9.50
2023-04-22T07:05:09.594Z,9.50
2023-04-22T07:07:36.943Z,10.38
2023-04-22T07:10:04.921Z,10.32
2023-04-22T07:12:37.684Z,8.45
2023-04-22T07:15:05.194Z,8.30
2023-04-22T07:17:32.264Z,7.65
2023-04-22T07:19:59.708Z,7.95
2023-04-22T07:22:26.803Z,6.82
2023-04-22T07:24:53.894Z,8.55
2023-04-22T07:27:20.937Z,8.13
2023-04-22T07:29:48.041Z,8.95
2023-04-22T07:32:15.067Z,8.63
2023-04-22T07:34:42.127Z,9.40
2023-04-22T07:37:09.707Z,7.82
2023-04-22T07:39:37.099Z,6.47
2023-04-22T07:42:04.486Z,10.13
2023-04-22T07:44:31.849Z,8.50
2023-04-22T07:46:59.663Z,9.40
2023-04-22T07:49:26.984Z,9.90
2023-04-22T07:51:54.034Z,12.73
2023-04-22T07:54:21.162Z,7.45
2023-04-22T07:56:48.319Z,7.18
2023-04-22T07:59:15.520Z,8.23
2023-04-22T08:01:42.792Z,9.27
2023-04-22T08:04:10.218Z,7.32
2023-04-22T08:06:37.640Z,8.07
2023-04-22T08:09:04.800Z,7.97
2023-04-22T08:11:32.062Z,12.05
2023-04-22T08:13:59.103Z,8.60
2023-04-22T08:16:26.320Z,8.93
2023-04-22T08:18:53.458Z,7.72
2023-04-22T08:21:21.182Z,7.72
2023-04-22T08:23:48.276Z,7.78
2023-04-22T08:26:17.023Z,6.60
2023-04-22T08:28:44.385Z,6.63
2023-04-22T08:31:13.089Z,8.90
2023-04-22T08:33:41.883Z,7.50
2023-04-22T08:36:11.284Z,8.35
2023-04-22T08:38:38.445Z,5.60
2023-04-22T08:41:07.212Z,10.32
2023-04-22T08:43:34.833Z,5.97
2023-04-22T08:46:02.418Z,6.53
2023-04-22T08:48:29.498Z,6.07
2023-04-22T08:50:58.158Z,5.80
2023-04-22T08:53:25.287Z,5.93
2023-04-22T08:55:55.686Z,5.88
2023-04-22T08:58:24.376Z,6.18
2023-04-22T09:00:52.050Z,7.20
2023-04-22T09:03:20.013Z,7.72
2023-04-22T09:05:48.823Z,11.13
2023-04-22T09:08:16.233Z,8.45
2023-04-22T09:10:43.430Z,8.35
2023-04-22T09:13:10.842Z,8.07
2023-04-22T09:15:37.890Z,6.70
2023-04-22T09:18:05.734Z,7.60
2023-04-22T09:20:32.802Z,7.07
2023-04-22T09:23:04.240Z,8.57
2023-04-22T09:25:35.237Z,7.22
2023-04-22T09:28:03.448Z,9.63
2023-04-22T09:30:31.788Z,8.10
2023-04-22T09:33:00.998Z,9.65
2023-04-22T09:35:34.133Z,7.78
2023-04-22T09:38:07.734Z,8.43
2023-04-22T09:40:36.402Z,10.13
2023-04-22T09:43:06.755Z,8.13
2023-04-22T09:45:39.718Z,7.80
2023-04-22T09:48:20.115Z,11.30
2023-04-22T09:53:20.588Z,8.85
2023-04-22T09:55:52.043Z,6.20
2023-04-22T09:58:24.037Z,7.57
2023-04-22T10:00:54.126Z,6.15
2023-04-22T10:03:21.668Z,8.38
2023-04-22T10:05:48.902Z,6.28
2023-04-22T10:08:17.179Z,6.80
2023-04-22T10:10:45.245Z,8.70
2023-04-22T10:13:12.686Z,8.05
2023-04-22T10:15:48.877Z,7.78
2023-04-22T10:18:21.738Z,9.07
2023-04-22T10:20:51.079Z,8.88
2023-04-22T10:23:24.380Z,7.85
2023-04-22T10:25:55.138Z,9.00
2023-04-22T10:28:24.112Z,8.05
2023-04-22T10:30:51.412Z,10.18
2023-04-22T10:33:21.496Z,8.95
2023-04-22T10:36:18.209Z,9.15
2023-04-22T10:38:51.147Z,8.43
2023-04-22T10:41:24.417Z,11.07
2023-04-22T10:44:02.566Z,12.55
2023-04-22T10:46:37.562Z,8.02
2023-04-22T10:49:13.308Z,10.25
2023-04-22T10:51:40.782Z,7.95
2023-04-22T10:54:36.521Z,8.27
2023-04-22T10:57:19.376Z,11.95
2023-04-22T10:59:53.440Z,13.02
2023-04-22T11:02:21.935Z,12.63
2023-04-22T11:04:50.046Z,9.95
2023-04-22T11:07:26.981Z,10.02
2023-04-22T11:10:07.647Z,11.48
2023-04-22T11:12:42.212Z,9.18
2023-04-22T11:15:14.901Z,8.05
2023-04-22T11:17:46.465Z,6.78
2023-04-22T11:20:18.114Z,6.82
2023-04-22T11:22:54.338Z,5.82
2023-04-22T11:25:22.658Z,10.25
2023-04-22T11:27:50.154Z,8.85
2023-04-22T11:30:20.053Z,8.48
2023-04-22T11:32:48.292Z,8.98
2023-04-22T11:35:21.012Z,6.38
2023-04-22T11:37:52.273Z,7.03
2023-04-22T11:40:31.511Z,7.15
2023-04-22T11:43:01.172Z,6.00
2023-04-22T11:45:30.578Z,7.18
2023-04-22T11:47:58.310Z,4.47
2023-04-22T11:50:31.062Z,5.00
2023-04-22T11:53:24.303Z,5.78
2023-04-22T11:55:52.149Z,6.97
2023-04-22T11:58:28.384Z,6.30
2023-04-22T12:00:57.888Z,8.85
2023-04-22T12:03:29.940Z,6.83
2023-04-22T12:06:02.472Z,7.25
2023-04-22T12:08:36.947Z,8.02
2023-04-22T12:11:06.436Z,9.05
2023-04-22T12:13:45.688Z,7.05
2023-04-22T12:16:15.053Z,12.57
2023-04-22T12:18:48.419Z,6.50
2023-04-22T12:21:18.222Z,6.78
2023-04-22T12:23:48.097Z,7.85
2023-04-22T12:26:17.029Z,8.55
2023-04-22T12:28:45.496Z,11.00
2023-04-22T12:31:14.500Z,8.38
2023-04-22T12:33:42.304Z,9.32
2023-04-22T12:36:10.138Z,8.15
2023-04-22T12:38:37.806Z,9.30
2023-04-22T12:41:06.614Z,10.45
2023-04-22T12:43:36.932Z,10.43
2023-04-22T12:46:08.608Z,10.95
2023-04-22T12:48:38.886Z,9.23
2023-04-22T12:51:06.998Z,9.93
2023-04-22T12:53:34.486Z,8.52
2023-04-22T12:56:01.676Z,8.32
2023-04-22T12:58:28.809Z,10.23
2023-04-22T13:00:56.114Z,11.57
2023-04-22T13:03:23.378Z,9.35
2023-04-22T13:05:51.090Z,9.45
2023-04-22T13:08:18.353Z,9.93
2023-04-22T13:10:45.502Z,10.82
2023-04-22T13:15:42.686Z,8.88
2023-04-22T13:18:09.818Z,10.77
2023-04-22T13:20:37.086Z,10.75
2023-04-22T13:23:04.990Z,9.50
2023-04-22T13:25:32.382Z,10.07
2023-04-22T13:27:59.519Z,11.90
2023-04-22T13:30:26.661Z,11.38
2023-04-22T13:32:53.819Z,10.07
2023-04-22T13:35:21.156Z,14.68
2023-04-22T13:37:48.224Z,11.25
2023-04-22T13:40:15.476Z,10.00
2023-04-22T13:42:44.532Z,10.15
2023-04-22T13:45:11.679Z,15.10
2023-04-22T13:47:38.818Z,8.50
2023-04-22T13:50:06.627Z,12.25
2023-04-22T13:52:34.154Z,14.00
2023-04-22T13:55:02.806Z,11.57
2023-04-22T13:57:29.981Z,8.65
2023-04-22T13:59:57.377Z,12.82
2023-04-22T14:02:24.550Z,13.00
2023-04-22T14:04:52.214Z,9.43
2023-04-22T14:07:19.461Z,9.80
2023-04-22T14:09:46.645Z,8.80
2023-04-22T14:12:13.826Z,8.85
2023-04-22T14:14:41.060Z,11.13
2023-04-22T14:17:08.419Z,8.57
2023-04-22T14:19:39.178Z,9.73
2023-04-22T14:22:06.864Z,11.27
2023-04-22T14:24:34.161Z,8.02
2023-04-22T14:27:03.952Z,8.98
2023-04-22T14:29:32.029Z,9.85
2023-04-22T14:31:59.735Z,9.05
2023-04-22T14:34:27.452Z,13.60
2023-04-22T14:36:55.020Z,10.00
2023-04-22T14:39:22.246Z,8.82
2023-04-22T14:41:49.716Z,10.63
2023-04-22T14:44:16.844Z,9.30
2023-04-22T14:46:43.977Z,9.95
2023-04-22T14:49:11.220Z,7.88
2023-04-22T14:51:38.317Z,8.48
2023-04-22T14:54:05.737Z,9.55
2023-04-22T14:56:32.924Z,7.50
2023-04-22T14:58:59.993Z,9.90
2023-04-22T15:01:27.201Z,7.60
2023-04-22T15:03:54.477Z,9.50
2023-04-22T15:06:23.208Z,9.48
2023-04-22T15:08:54.267Z,11.18
2023-04-22T15:11:21.469Z,11.40
2023-04-22T15:13:48.649Z,8.70
2023-04-22T15:16:15.804Z,9.05
2023-04-22T15:18:43.152Z,9.45
2023-04-22T15:21:10.776Z,10.18
2023-04-22T15:23:37.907Z,10.05
2023-04-22T15:26:05.333Z,10.88
2023-04-22T15:28:33.331Z,10.15
2023-04-22T15:31:01.628Z,11.25
2023-04-22T15:33:28.756Z,11.88
2023-04-22T15:35:55.999Z,10.40
2023-04-22T15:38:23.759Z,13.38
2023-04-22T15:40:50.841Z,10.45
2023-04-22T15:43:17.945Z,8.82
2023-04-22T15:45:45.134Z,9.75
2023-04-22T15:48:12.252Z,10.85
2023-04-22T15:50:40.872Z,9.63
2023-04-22T15:53:07.997Z,9.00
2023-04-22T15:55:35.103Z,8.57
2023-04-22T15:58:02.850Z,11.15
2023-04-22T16:00:29.955Z,11.63
2023-04-22T16:02:57.184Z,9.38
2023-04-22T16:05:25.279Z,10.35
2023-04-22T16:07:54.127Z,11.23
2023-04-22T16:10:21.678Z,8.90
2023-04-22T16:12:49.423Z,11.20
2023-04-22T16:15:17.871Z,13.32
2023-04-22T16:17:45.199Z,10.43
2023-04-22T16:20:12.404Z,9.57
2023-04-22T16:22:39.543Z,9.25
2023-04-22T16:25:07.513Z,9.48
2023-04-22T16:27:34.657Z,7.20
2023-04-22T16:30:02.120Z,8.85
2023-04-22T16:32:29.300Z,10.80
2023-04-22T16:34:56.392Z,9.27
2023-04-22T16:37:23.545Z,15.30
2023-04-22T16:39:51.511Z,8.60
2023-04-22T16:42:18.894Z,7.97
2023-04-22T16:44:46.044Z,13.50
2023-04-22T16:47:13.191Z,9.05
2023-04-22T16:49:40.435Z,9.45
2023-04-22T16:52:07.648Z,12.05
2023-04-22T16:54:34.761Z,12.98
2023-04-22T16:57:02.923Z,16.05
2023-04-22T16:59:30.017Z,9.40
2023-04-22T17:01:57.412Z,8.85
2023-04-22T17:04:24.706Z,10.60
2023-04-22T17:06:52.071Z,10.90
2023-04-22T17:09:19.276Z,7.85
2023-04-22T17:11:46.468Z,10.02
2023-04-22T17:14:14.049Z,12.07
2023-04-22T17:16:41.253Z,12.30
2023-04-22T17:19:08.309Z,11.43
2023-04-22T17:21:35.493Z,8.20
2023-04-22T17:24:04.030Z,10.45
2023-04-22T17:26:31.199Z,11.45
2023-04-22T17:28:58.370Z,10.00
2023-04-22T17:31:25.685Z,14.30
2023-04-22T17:33:52.916Z,7.88
2023-04-22T17:36:20.209Z,10.48
2023-04-22T17:38:47.320Z,8.90
2023-04-22T17:41:14.666Z,12.95
2023-04-22T17:43:41.885Z,39.22
2023-04-22T17:46:09.190Z,19.27
2023-04-22T17:48:36.934Z,31.08
2023-04-22T17:51:07.578Z,11.55
2023-04-22T17:53:34.830Z,15.80
2023-04-22T17:56:02.027Z,9.27
2023-04-22T17:58:29.164Z,7.97
2023-04-22T18:00:58.742Z,10.50
2023-04-22T18:03:26.520Z,10.63
2023-04-22T18:05:53.815Z,11.52
2023-04-22T18:08:20.964Z,7.95
2023-04-22T18:10:48.163Z,8.75
2023-04-22T18:13:15.731Z,9.38
2023-04-22T18:15:42.851Z,9.00
2023-04-22T18:18:10.071Z,8.90
2023-04-22T18:20:37.275Z,8.57
2023-04-22T18:23:04.411Z,13.35
2023-04-22T18:25:31.590Z,8.10
2023-04-22T18:27:58.726Z,10.80
2023-04-22T18:30:25.831Z,11.43
2023-04-22T18:32:53.329Z,10.70
2023-04-22T18:35:20.965Z,9.88
2023-04-22T18:37:48.098Z,7.38
2023-04-22T18:40:17.422Z,10.02
2023-04-22T18:42:45.045Z,9.68
2023-04-22T18:45:12.416Z,9.38
2023-04-22T18:47:39.664Z,8.82
2023-04-22T18:50:07.517Z,13.68
2023-04-22T18:52:34.871Z,10.80
2023-04-22T18:55:02.103Z,11.10
2023-04-22T18:57:29.405Z,8.20
2023-04-22T18:59:56.622Z,14.00
2023-04-22T19:02:24.303Z,8.93
2023-04-22T19:04:52.871Z,9.13
2023-04-22T19:07:20.046Z,9.88
2023-04-22T19:09:47.106Z,16.35
2023-04-22T19:12:16.740Z,11.13
2023-04-22T19:14:44.000Z,12.95
2023-04-22T19:17:11.242Z,11.57
2023-04-22T19:19:38.836Z,12.82
2023-04-22T19:22:06.109Z,9.35
2023-04-22T19:24:35.410Z,11.88
2023-04-22T19:27:03.045Z,12.20
2023-04-22T19:29:30.165Z,13.35
2023-04-22T19:31:57.583Z,11.80
2023-04-22T19:34:24.784Z,10.43
2023-04-22T19:36:51.815Z,13.30
2023-04-22T19:39:19.068Z,15.13
2023-04-22T19:41:46.248Z,12.95
2023-04-22T19:44:13.329Z,12.98
2023-04-22T19:46:40.829Z,18.48
2023-04-22T19:49:08.722Z,13.57
2023-04-22T19:51:36.933Z,12.57
2023-04-22T19:54:05.096Z,14.93
2023-04-22T19:56:32.414Z,13.68
2023-04-22T19:58:59.562Z,16.23
2023-04-22T20:01:26.990Z,20.58
2023-04-22T20:03:54.558Z,16.33
2023-04-22T20:06:22.883Z,16.48
2023-04-22T20:08:53.733Z,16.02
2023-04-22T20:11:21.786Z,14.18
2023-04-22T20:13:52.011Z,15.63
2023-04-22T20:16:20.976Z,14.85
2023-04-22T20:18:48.458Z,15.07
2023-04-22T20:21:16.341Z,14.55
2023-04-22T20:23:43.478Z,15.65
2023-04-22T20:26:11.558Z,15.98
2023-04-22T20:28:48.952Z,15.00
2023-04-22T20:31:18.838Z,14.90
2023-04-22T20:33:46.867Z,13.05
2023-04-22T20:36:17.194Z,14.23
2023-04-22T20:38:48.893Z,13.85
2023-04-22T20:41:20.315Z,17.92
2023-04-22T20:43:47.420Z,15.48
2023-04-22T20:46:14.543Z,19.30
2023-04-22T20:48:41.790Z,19.33
2023-04-22T20:51:08.890Z,16.88
2023-04-22T20:53:36.474Z,12.98
2023-04-22T20:56:05.129Z,17.90
2023-04-22T20:58:33.455Z,17.27
2023-04-22T21:01:00.575Z,20.08
2023-04-22T21:03:28.129Z,13.95
2023-04-22T21:05:56.539Z,20.13
2023-04-22T21:08:25.277Z,16.98
2023-04-22T21:10:54.214Z,12.85
2023-04-22T21:13:22.407Z,17.95
2023-04-22T21:15:57.974Z,17.35
2023-04-22T21:18:26.576Z,16.70
2023-04-22T21:20:56.389Z,16.55
2023-04-22T21:23:24.639Z,16.80
2023-04-22T21:25:54.832Z,17.42
2023-04-22T21:28:23.097Z,17.27
2023-04-22T21:30:50.458Z,16.30
2023-04-22T21:33:17.606Z,19.35
2023-04-22T21:35:44.682Z,15.48
2023-04-22T21:38:12.071Z,16.38
2023-04-22T21:40:39.148Z,18.33
2023-04-22T21:43:06.299Z,19.88
2023-04-22T21:45:34.644Z,17.83
2023-04-22T21:48:02.454Z,18.17
2023-04-22T21:50:32.730Z,18.58
2023-04-22T21:53:00.012Z,20.58
2023-04-22T21:55:27.188Z,21.27
2023-04-22T21:57:54.219Z,17.88
2023-04-22T22:00:21.329Z,18.08
2023-04-22T22:02:49.151Z,22.02
2023-04-22T22:05:16.493Z,19.08
2023-04-22T22:07:45.145Z,22.05
2023-04-22T22:10:15.023Z,18.92
2023-04-22T22:12:42.499Z,17.67
2023-04-22T22:15:10.145Z,18.15
2023-04-22T22:17:40.632Z,17.60
2023-04-22T22:20:13.761Z,17.42
2023-04-22T22:22:42.143Z,16.73
2023-04-22T22:25:11.092Z,19.23
2023-04-22T22:27:47.184Z,18.10
2023-04-22T22:30:16.139Z,19.85
2023-04-22T22:32:43.354Z,17.52
2023-04-22T22:35:11.091Z,18.10
2023-04-22T22:37:38.254Z,19.55
2023-04-22T22:40:06.209Z,19.58
2023-04-22T22:42:33.252Z,19.50
2023-04-22T22:45:00.432Z,18.55
2023-04-22T22:47:27.503Z,19.80
2023-04-22T22:49:54.663Z,18.52
2023-04-22T22:52:22.167Z,17.13
2023-04-22T22:54:50.315Z,21.30
2023-04-22T22:57:17.367Z,15.45
2023-04-22T22:59:44.475Z,15.75
2023-04-22T23:02:13.907Z,16.58
2023-04-22T23:04:41.312Z,14.03
2023-04-22T23:07:08.811Z,17.58
2023-04-22T23:09:35.964Z,17.73
2023-04-22T23:12:03.140Z,17.00
2023-04-22T23:14:30.276Z,15.63
2023-04-22T23:16:57.365Z,17.60
2023-04-22T23:19:25.835Z,15.88
2023-04-22T23:21:55.321Z,14.85
2023-04-22T23:24:22.748Z,14.50
2023-04-22T23:26:50.003Z,16.67
2023-04-22T23:29:17.360Z,19.58
2023-04-22T23:31:45.165Z,13.73
2023-04-22T23:34:15.218Z,16.13
2023-04-22T23:36:43.116Z,18.90
2023-04-22T23:39:10.064Z,13.70
2023-04-22T23:41:37.176Z,14.80
2023-04-22T23:44:04.276Z,15.68
2023-04-22T23:46:31.468Z,15.43
2023-04-22T23:48:59.084Z,17.10
2023-04-22T23:51:26.710Z,15.32
2023-04-22T23:53:53.718Z,17.73
2023-04-22T23:56:22.986Z,16.70
2023-04-22T23:58:51.214Z,15.98
